createdAt,value
2019-04-07T00:01:52.705Z,6.63
2019-04-07T00:04:22.525Z,6.87
2019-04-07T00:06:52.134Z,7.02
2019-04-07T00:09:22.270Z,7.08
2019-04-07T00:11:52.058Z,6.98
2019-04-07T00:14:21.576Z,6.79
2019-04-07T00:16:51.799Z,6.58
2019-04-07T00:19:21.912Z,6.49
2019-04-07T00:21:51.617Z,6.63
2019-04-07T00:24:20.895Z,6.78
2019-04-07T00:26:50.427Z,6.87
2019-04-07T00:29:19.937Z,6.89
2019-04-07T00:31:50.051Z,6.77
2019-04-07T00:34:20.534Z,6.88
2019-04-07T00:36:49.857Z,6.71
2019-04-07T00:39:19.252Z,6.52
2019-04-07T00:41:48.857Z,6.40
2019-04-07T00:44:18.955Z,6.42
2019-04-07T00:46:48.780Z,6.53
2019-04-07T00:49:18.263Z,6.65
2019-04-07T00:51:48.737Z,6.76
2019-04-07T00:54:18.876Z,6.88
2019-04-07T00:56:48.256Z,6.98
2019-04-07T00:59:18.777Z,7.06
2019-04-07T01:01:48.180Z,7.03
2019-04-07T01:04:17.785Z,7.05
2019-04-07T01:06:48.291Z,7.01
2019-04-07T01:09:18.708Z,7.07
2019-04-07T01:11:48.620Z,7.10
2019-04-07T01:14:18.197Z,7.15
2019-04-07T01:16:48.288Z,7.12
2019-04-07T01:19:17.869Z,7.19
2019-04-07T01:21:47.760Z,7.10
2019-04-07T01:24:18.685Z,7.02
2019-04-07T01:26:48.347Z,6.96
2019-04-07T01:29:18.365Z,6.96
2019-04-07T01:31:48.446Z,6.95
2019-04-07T01:34:18.478Z,6.92
2019-04-07T01:36:48.071Z,6.95
2019-04-07T01:39:18.164Z,6.92
2019-04-07T01:41:58.427Z,6.89
2019-04-07T01:44:29.743Z,6.92
2019-04-07T01:47:17.741Z,6.45
2019-04-07T01:49:54.104Z,5.90
2019-04-07T01:52:37.025Z,5.64
2019-04-07T01:55:09.167Z,5.80
2019-04-07T01:57:43.529Z,5.87
2019-04-07T02:00:27.132Z,6.06
2019-04-07T02:02:59.107Z,6.08
2019-04-07T02:05:32.755Z,6.01
2019-04-07T02:08:09.577Z,5.81
2019-04-07T02:10:46.958Z,5.58
2019-04-07T02:13:27.564Z,5.56
2019-04-07T02:15:59.072Z,5.63
2019-04-07T02:18:31.254Z,5.61
2019-04-07T02:21:03.039Z,5.73
2019-04-07T02:23:37.178Z,5.79
2019-04-07T02:26:13.604Z,5.68
2019-04-07T02:29:01.600Z,5.71
2019-04-07T02:31:38.820Z,5.46
2019-04-07T02:34:25.939Z,5.26
2019-04-07T02:36:58.117Z,5.01
2019-04-07T02:39:32.717Z,4.73
2019-04-07T02:42:13.072Z,4.48
2019-04-07T02:44:44.110Z,4.62
2019-04-07T02:47:15.877Z,4.60
2019-04-07T02:49:47.562Z,4.60
2019-04-07T02:52:21.436Z,4.65
2019-04-07T02:55:08.423Z,5.04
2019-04-07T02:57:40.314Z,5.05
2019-04-07T03:00:12.101Z,5.27
2019-04-07T03:02:45.729Z,5.41
2019-04-07T03:05:33.113Z,5.28
2019-04-07T03:08:07.796Z,5.21
2019-04-07T03:10:42.476Z,4.86
2019-04-07T03:13:16.807Z,4.46
2019-04-07T03:15:48.474Z,4.19
2019-04-07T03:18:27.039Z,4.32
2019-04-07T03:21:01.180Z,4.23
2019-04-07T03:23:48.653Z,4.28
2019-04-07T03:26:32.418Z,4.25
2019-04-07T03:29:12.659Z,4.24
2019-04-07T03:31:51.476Z,4.30
2019-04-07T03:34:24.147Z,4.30
2019-04-07T03:37:27.552Z,4.16
2019-04-07T03:39:46.133Z,4.25
2019-04-07T03:42:23.179Z,4.19
2019-04-07T03:44:56.827Z,4.47
2019-04-07T03:47:33.517Z,4.42
2019-04-07T03:50:04.384Z,4.24
2019-04-07T03:52:51.605Z,4.33
2019-04-07T03:55:28.702Z,4.38
2019-04-07T03:58:03.611Z,4.42
2019-04-07T04:01:10.282Z,4.44
2019-04-07T04:03:59.472Z,4.66
2019-04-07T04:06:30.499Z,4.55
2019-04-07T04:09:17.260Z,4.51
2019-04-07T04:11:51.690Z,4.62
2019-04-07T04:14:23.900Z,4.62
2019-04-07T04:16:54.384Z,4.51
2019-04-07T04:19:23.630Z,4.47
2019-04-07T04:21:52.918Z,4.50
2019-04-07T04:24:22.995Z,4.44
2019-04-07T04:26:53.771Z,4.30
2019-04-07T04:29:24.634Z,4.28
2019-04-07T04:31:54.799Z,4.15
2019-04-07T04:34:25.190Z,4.26
2019-04-07T04:36:54.859Z,4.22
2019-04-07T04:39:24.933Z,4.27
2019-04-07T04:41:55.346Z,4.32
2019-04-07T04:44:25.697Z,4.29
2019-04-07T04:46:56.093Z,4.24
2019-04-07T04:49:25.444Z,4.32
2019-04-07T04:51:54.740Z,4.01
2019-04-07T04:54:24.586Z,4.10
2019-04-07T04:56:54.262Z,4.35
2019-04-07T04:59:23.262Z,4.26
2019-04-07T05:01:53.134Z,4.14
2019-04-07T05:04:24.066Z,4.08
2019-04-07T05:06:53.646Z,4.22
2019-04-07T05:09:24.436Z,4.35
2019-04-07T05:11:54.019Z,4.44
2019-04-07T05:14:24.136Z,4.61
2019-04-07T05:16:53.782Z,4.81
2019-04-07T05:19:23.688Z,4.90
2019-04-07T05:21:53.180Z,5.17
2019-04-07T05:24:22.495Z,5.43
2019-04-07T05:26:51.998Z,5.44
2019-04-07T05:29:21.261Z,5.37
2019-04-07T05:31:50.382Z,5.54
2019-04-07T05:34:22.131Z,5.53
2019-04-07T05:36:51.218Z,5.46
2019-04-07T05:39:20.830Z,5.46
2019-04-07T05:41:50.747Z,5.53
2019-04-07T05:44:20.049Z,5.66
2019-04-07T05:46:49.798Z,5.80
2019-04-07T05:49:21.688Z,5.96
2019-04-07T05:51:50.225Z,6.14
2019-04-07T05:54:20.741Z,6.34
2019-04-07T05:56:50.318Z,6.51
2019-04-07T05:59:19.898Z,6.63
2019-04-07T06:01:51.574Z,6.79
2019-04-07T06:04:20.635Z,7.02
2019-04-07T06:06:53.575Z,7.10
2019-04-07T06:09:21.623Z,7.25
2019-04-07T06:11:51.357Z,7.41
2019-04-07T06:14:20.606Z,7.56
2019-04-07T06:16:53.557Z,7.66
2019-04-07T06:19:21.499Z,7.83
2019-04-07T06:21:51.664Z,7.88
2019-04-07T06:24:22.246Z,7.95
2019-04-07T06:26:52.163Z,7.90
2019-04-07T06:29:24.695Z,8.05
2019-04-07T06:31:53.001Z,8.20
2019-04-07T06:34:22.632Z,8.41
2019-04-07T06:36:54.904Z,8.55
2019-04-07T06:39:23.235Z,8.69
2019-04-07T06:41:53.317Z,8.86
2019-04-07T06:44:23.504Z,8.84
2019-04-07T06:47:01.283Z,8.96
2019-04-07T06:49:33.733Z,9.13
2019-04-07T06:52:20.881Z,9.31
2019-04-07T06:54:55.068Z,9.46
2019-04-07T06:57:28.204Z,9.68
2019-04-07T07:00:00.917Z,9.83
2019-04-07T07:02:31.897Z,10.00
2019-04-07T07:05:05.191Z,10.11
2019-04-07T07:07:36.398Z,10.18
2019-04-07T07:10:10.412Z,10.29
2019-04-07T07:12:44.078Z,10.53
2019-04-07T07:15:34.528Z,10.63
2019-04-07T07:18:05.158Z,10.77
2019-04-07T07:20:49.239Z,10.77
2019-04-07T07:23:19.965Z,11.01
2019-04-07T07:25:50.516Z,11.20
2019-04-07T07:28:21.097Z,11.25
2019-04-07T07:30:52.528Z,11.39
2019-04-07T07:33:21.463Z,11.58
2019-04-07T07:35:50.893Z,11.64
2019-04-07T07:38:20.396Z,11.86
2019-04-07T07:40:50.179Z,12.00
2019-04-07T07:43:19.847Z,12.25
2019-04-07T07:45:50.175Z,12.31
2019-04-07T07:48:20.819Z,12.49
2019-04-07T07:50:51.195Z,12.59
2019-04-07T07:53:23.701Z,12.75
2019-04-07T07:55:51.305Z,12.95
2019-04-07T07:58:20.739Z,13.17
2019-04-07T08:00:50.607Z,13.37
2019-04-07T08:03:22.640Z,13.48
2019-04-07T08:05:51.176Z,13.60
2019-04-07T08:08:21.743Z,13.79
2019-04-07T08:10:51.716Z,13.73
2019-04-07T08:13:21.380Z,13.96
2019-04-07T08:15:51.382Z,14.24
2019-04-07T08:18:21.028Z,14.47
2019-04-07T08:20:51.275Z,14.66
2019-04-07T08:23:21.005Z,14.83
2019-04-07T08:25:52.892Z,14.96
2019-04-07T08:28:21.649Z,15.17
2019-04-07T08:30:51.361Z,15.41
2019-04-07T08:33:20.814Z,15.56
2019-04-07T08:35:50.264Z,15.65
2019-04-07T08:38:22.526Z,15.78
2019-04-07T08:40:52.899Z,16.06
2019-04-07T08:43:23.412Z,16.34
2019-04-07T08:45:52.505Z,16.50
2019-04-07T08:48:21.937Z,16.50
2019-04-07T08:50:51.878Z,16.38
2019-04-07T08:53:21.353Z,16.42
2019-04-07T08:55:54.463Z,16.58
2019-04-07T08:58:26.413Z,16.73
2019-04-07T09:00:54.110Z,16.98
2019-04-07T09:03:23.283Z,17.38
2019-04-07T09:05:56.451Z,17.71
2019-04-07T09:08:24.120Z,18.06
2019-04-07T09:11:04.634Z,17.93
2019-04-07T09:13:34.318Z,17.72
2019-04-07T09:16:21.608Z,17.63
2019-04-07T09:19:01.831Z,17.63
2019-04-07T09:21:38.800Z,17.99
2019-04-07T09:24:09.426Z,18.42
2019-04-07T09:26:57.839Z,18.75
2019-04-07T09:29:30.013Z,19.00
2019-04-07T09:32:17.839Z,19.11
2019-04-07T09:34:52.279Z,18.97
2019-04-07T09:37:24.390Z,19.18
2019-04-07T09:39:59.545Z,19.41
2019-04-07T09:42:28.120Z,19.58
2019-04-07T09:45:12.701Z,19.87
2019-04-07T09:48:00.729Z,20.00
2019-04-07T09:50:32.352Z,20.43
2019-04-07T09:53:15.816Z,20.72
2019-04-07T09:55:46.398Z,21.04
2019-04-07T09:58:18.219Z,20.70
2019-04-07T10:00:50.719Z,20.27
2019-04-07T10:03:38.678Z,20.70
2019-04-07T10:06:12.704Z,21.09
2019-04-07T10:11:41.769Z,21.06
2019-04-07T10:14:29.607Z,20.54
2019-04-07T10:17:03.249Z,20.39
2019-04-07T10:19:36.309Z,20.66
2019-04-07T10:22:23.463Z,20.62
2019-04-07T10:25:02.994Z,20.48
2019-04-07T10:27:44.090Z,20.29
2019-04-07T10:30:17.984Z,20.11
2019-04-07T10:32:57.521Z,19.78
2019-04-07T10:35:28.425Z,19.71
2019-04-07T10:38:02.664Z,19.62
2019-04-07T10:40:34.826Z,19.83
2019-04-07T10:43:11.800Z,19.96
2019-04-07T10:45:57.945Z,20.16
2019-04-07T10:48:35.707Z,20.68
2019-04-07T10:51:06.800Z,21.00
2019-04-07T10:53:43.713Z,21.13
2019-04-07T10:56:29.583Z,21.06
2019-04-07T10:59:13.766Z,20.27
2019-04-07T11:02:02.515Z,19.95
2019-04-07T11:04:50.697Z,19.56
2019-04-07T11:07:38.309Z,19.05
2019-04-07T11:10:32.876Z,18.70
2019-04-07T11:13:04.623Z,18.14
2019-04-07T11:15:39.341Z,17.64
2019-04-07T11:18:10.701Z,17.38
2019-04-07T11:20:50.921Z,16.96
2019-04-07T11:23:33.769Z,17.03
2019-04-07T11:26:07.274Z,16.93
2019-04-07T11:28:38.026Z,16.80
2019-04-07T11:31:21.202Z,16.44
2019-04-07T11:34:01.385Z,16.57
2019-04-07T11:36:32.218Z,16.58
2019-04-07T11:39:05.879Z,16.60
2019-04-07T11:41:43.534Z,16.30
2019-04-07T11:44:19.938Z,17.08
2019-04-07T11:46:53.013Z,18.14
2019-04-07T11:49:43.896Z,19.55
2019-04-07T11:52:33.208Z,20.77
2019-04-07T11:55:21.712Z,21.57
2019-04-07T11:58:06.590Z,20.79
2019-04-07T12:00:28.161Z,20.51
2019-04-07T12:03:06.107Z,20.63
2019-04-07T12:05:53.950Z,20.92
2019-04-07T12:08:35.092Z,20.95
2019-04-07T12:11:19.947Z,20.46
2019-04-07T12:14:00.798Z,19.98
2019-04-07T12:16:35.103Z,20.11
2019-04-07T12:19:20.488Z,20.67
2019-04-07T12:21:51.201Z,21.49
2019-04-07T12:24:28.386Z,22.31
2019-04-07T12:27:06.806Z,22.27
2019-04-07T12:29:50.525Z,21.48
2019-04-07T12:32:21.529Z,22.00
2019-04-07T12:34:52.265Z,22.50
2019-04-07T12:37:42.411Z,22.77
2019-04-07T12:40:29.011Z,22.78
2019-04-07T12:43:00.185Z,22.67
2019-04-07T12:45:31.841Z,21.59
2019-04-07T12:48:06.015Z,22.33
2019-04-07T12:50:49.258Z,22.53
2019-04-07T12:53:35.907Z,23.53
2019-04-07T12:56:19.723Z,24.78
2019-04-07T12:58:54.464Z,25.27
2019-04-07T13:01:35.616Z,25.82
2019-04-07T13:04:12.211Z,26.47
2019-04-07T13:07:04.537Z,27.25
2019-04-07T13:09:44.906Z,27.75
2019-04-07T13:12:22.959Z,28.10
2019-04-07T13:14:53.667Z,28.45
2019-04-07T13:17:42.125Z,28.68
2019-04-07T13:20:21.520Z,29.01
2019-04-07T13:23:11.179Z,29.06
2019-04-07T13:25:46.027Z,29.20
2019-04-07T13:28:22.839Z,28.88
2019-04-07T13:30:58.422Z,29.04
2019-04-07T13:33:31.673Z,29.29
2019-04-07T13:36:23.664Z,29.53
2019-04-07T13:39:04.456Z,29.18
2019-04-07T13:41:55.420Z,28.52
2019-04-07T13:44:38.787Z,27.48
2019-04-07T13:47:10.779Z,26.50
2019-04-07T13:49:44.730Z,26.00
2019-04-07T13:52:25.927Z,25.37
2019-04-07T13:54:57.906Z,25.07
2019-04-07T13:57:29.498Z,25.49
2019-04-07T14:00:18.554Z,25.86
2019-04-07T14:03:05.920Z,26.21
2019-04-07T14:05:41.098Z,26.71
2019-04-07T14:08:12.624Z,27.27
2019-04-07T14:10:52.831Z,27.84
2019-04-07T14:13:42.444Z,28.21
2019-04-07T14:16:30.166Z,28.65
2019-04-07T14:19:04.106Z,28.57
2019-04-07T14:21:34.992Z,28.34
2019-04-07T14:24:15.063Z,28.15
2019-04-07T14:26:45.624Z,27.81
2019-04-07T14:29:32.758Z,27.47
2019-04-07T14:32:06.749Z,27.86
2019-04-07T14:34:50.929Z,28.21
2019-04-07T14:37:22.825Z,28.62
2019-04-07T14:40:10.785Z,26.87
2019-04-07T14:42:44.559Z,25.20
2019-04-07T14:45:16.739Z,25.14
2019-04-07T14:47:47.978Z,25.28
2019-04-07T14:50:22.114Z,25.01
2019-04-07T14:52:53.557Z,24.88
2019-04-07T14:55:33.626Z,25.33
2019-04-07T14:58:21.617Z,26.07
2019-04-07T15:00:57.210Z,26.73
2019-04-07T15:03:27.454Z,26.85
2019-04-07T15:05:58.273Z,26.98
2019-04-07T15:08:39.791Z,27.29
2019-04-07T15:11:13.919Z,27.31
2019-04-07T15:13:44.634Z,27.46
2019-04-07T15:16:13.469Z,27.64
2019-04-07T15:18:43.146Z,27.89
2019-04-07T15:21:13.419Z,27.45
2019-04-07T15:23:45.784Z,27.05
2019-04-07T15:26:16.600Z,26.12
2019-04-07T15:28:46.802Z,24.66
2019-04-07T15:31:18.374Z,23.79
2019-04-07T15:33:47.915Z,23.94
2019-04-07T15:36:18.785Z,23.66
2019-04-07T15:38:48.625Z,23.90
2019-04-07T15:41:19.433Z,23.16
2019-04-07T15:43:50.061Z,23.11
2019-04-07T15:46:19.686Z,23.24
2019-04-07T15:48:49.839Z,23.52
2019-04-07T15:51:19.745Z,23.93
2019-04-07T15:53:51.681Z,24.25
2019-04-07T15:56:20.869Z,24.56
2019-04-07T15:58:51.696Z,24.60
2019-04-07T16:01:23.806Z,23.93
2019-04-07T16:03:54.705Z,23.59
2019-04-07T16:06:24.798Z,23.18
2019-04-07T16:08:57.336Z,22.17
2019-04-07T16:11:29.026Z,22.20
2019-04-07T16:13:56.946Z,22.06
2019-04-07T16:16:29.178Z,21.97
2019-04-07T16:18:59.278Z,21.48
2019-04-07T16:21:29.791Z,20.88
2019-04-07T16:23:59.950Z,20.73
2019-04-07T16:26:31.136Z,20.61
2019-04-07T16:29:01.267Z,20.34
2019-04-07T16:31:31.174Z,20.02
2019-04-07T16:34:03.383Z,19.63
2019-04-07T16:36:32.545Z,19.71
2019-04-07T16:39:03.245Z,19.86
2019-04-07T16:41:33.145Z,19.85
2019-04-07T16:44:04.807Z,19.84
2019-04-07T16:46:34.105Z,19.44
2019-04-07T16:49:04.526Z,19.06
2019-04-07T16:51:35.130Z,18.89
2019-04-07T16:54:08.059Z,18.64
2019-04-07T16:56:36.549Z,18.26
2019-04-07T16:59:09.674Z,17.97
2019-04-07T17:01:37.985Z,17.91
2019-04-07T17:04:08.321Z,17.70
2019-04-07T17:06:37.947Z,17.58
2019-04-07T17:09:11.073Z,17.34
2019-04-07T17:11:40.886Z,17.04
2019-04-07T17:14:10.644Z,16.84
2019-04-07T17:16:44.167Z,16.60
2019-04-07T17:19:12.115Z,16.37
2019-04-07T17:21:42.833Z,16.33
2019-04-07T17:24:13.160Z,16.26
2019-04-07T17:26:43.541Z,16.34
2019-04-07T17:29:17.058Z,16.27
2019-04-07T17:31:45.586Z,16.13
2019-04-07T17:34:15.722Z,16.13
2019-04-07T17:36:48.452Z,15.94
2019-04-07T17:39:21.704Z,15.94
2019-04-07T17:41:51.973Z,15.84
2019-04-07T17:44:32.791Z,16.04
2019-04-07T17:47:08.368Z,15.76
2019-04-07T17:49:59.014Z,15.54
2019-04-07T17:52:29.118Z,15.58
2019-04-07T17:55:12.703Z,15.53
2019-04-07T17:57:46.721Z,15.37
2019-04-07T18:00:18.545Z,15.38
2019-04-07T18:03:04.918Z,15.39
2019-04-07T18:05:40.855Z,15.28
2019-04-07T18:08:13.425Z,15.16
2019-04-07T18:10:44.476Z,14.93
2019-04-07T18:13:16.961Z,15.02
2019-04-07T18:16:05.079Z,14.99
2019-04-07T18:18:36.678Z,14.99
2019-04-07T18:21:11.832Z,14.89
2019-04-07T18:23:58.741Z,14.53
2019-04-07T18:26:29.671Z,14.28
2019-04-07T18:29:17.254Z,13.82
2019-04-07T18:31:48.899Z,13.62
2019-04-07T18:34:25.761Z,13.25
2019-04-07T18:37:08.390Z,13.23
2019-04-07T18:39:55.050Z,13.21
2019-04-07T18:42:41.434Z,13.35
2019-04-07T18:45:30.875Z,13.23
2019-04-07T18:48:22.738Z,12.99
2019-04-07T18:51:00.867Z,12.93
2019-04-07T18:53:36.202Z,12.98
2019-04-07T18:56:22.863Z,12.84
2019-04-07T18:59:11.701Z,12.63
2019-04-07T19:01:52.255Z,12.47
2019-04-07T19:04:26.601Z,12.38
2019-04-07T19:07:02.267Z,12.37
2019-04-07T19:09:50.792Z,12.31
2019-04-07T19:12:41.165Z,11.80
2019-04-07T19:15:31.074Z,11.64
2019-04-07T19:18:18.906Z,11.58
2019-04-07T19:21:09.789Z,11.57
2019-04-07T19:23:45.692Z,11.49
2019-04-07T19:26:29.092Z,11.31
2019-04-07T19:29:15.292Z,11.40
2019-04-07T19:31:52.468Z,10.82
2019-04-07T19:34:28.491Z,11.09
2019-04-07T19:36:59.993Z,10.87
2019-04-07T19:39:40.481Z,10.59
2019-04-07T19:42:28.507Z,10.41
2019-04-07T19:45:04.355Z,10.40
2019-04-07T19:47:38.452Z,10.45
2019-04-07T19:50:13.504Z,10.26
2019-04-07T19:53:00.964Z,10.04
2019-04-07T19:55:45.263Z,10.09
2019-04-07T19:58:32.766Z,9.61
2019-04-07T20:01:10.569Z,9.56
2019-04-07T20:03:58.114Z,9.44
2019-04-07T20:06:31.944Z,9.63
2019-04-07T20:09:19.293Z,9.54
2019-04-07T20:11:53.432Z,9.65
2019-04-07T20:14:47.561Z,9.65
2019-04-07T20:17:29.314Z,9.64
2019-04-07T20:20:17.445Z,9.56
2019-04-07T20:23:08.429Z,9.52
2019-04-07T20:25:41.045Z,9.49
2019-04-07T20:28:23.026Z,9.38
2019-04-07T20:30:54.093Z,9.26
2019-04-07T20:33:29.900Z,9.26
2019-04-07T20:36:18.817Z,9.21
2019-04-07T20:39:00.483Z,9.17
2019-04-07T20:41:34.471Z,9.20
2019-04-07T20:44:11.359Z,9.20
2019-04-07T20:46:57.024Z,9.26
2019-04-07T20:49:32.914Z,9.10
2019-04-07T20:52:13.310Z,9.20
2019-04-07T20:54:44.617Z,8.98
2019-04-07T20:57:32.961Z,8.53
2019-04-07T21:00:06.960Z,8.91
2019-04-07T21:02:45.702Z,8.91
2019-04-07T21:05:32.266Z,8.80
2019-04-07T21:08:16.526Z,8.50
2019-04-07T21:10:47.463Z,8.55
2019-04-07T21:13:19.371Z,8.42
2019-04-07T21:15:50.439Z,8.45
2019-04-07T21:18:33.972Z,8.41
2019-04-07T21:21:22.148Z,8.36
2019-04-07T21:24:02.197Z,8.39
2019-04-07T21:26:39.239Z,8.38
2019-04-07T21:29:11.222Z,8.41
2019-04-07T21:31:59.306Z,8.39
2019-04-07T21:34:31.125Z,8.45
2019-04-07T21:37:03.061Z,8.44
2019-04-07T21:39:36.905Z,8.48
2019-04-07T21:42:11.473Z,8.33
2019-04-07T21:44:51.985Z,8.30
2019-04-07T21:47:25.540Z,8.17
2019-04-07T21:49:56.033Z,7.98
2019-04-07T21:52:26.872Z,7.81
2019-04-07T21:54:58.433Z,7.77
2019-04-07T21:57:36.472Z,7.58
2019-04-07T22:00:15.112Z,7.64
2019-04-07T22:02:46.907Z,7.33
2019-04-07T22:05:23.982Z,7.46
2019-04-07T22:08:14.446Z,7.60
2019-04-07T22:10:41.579Z,7.74
2019-04-07T22:13:12.117Z,7.84
2019-04-07T22:15:48.284Z,7.82
2019-04-07T22:18:13.594Z,7.71
2019-04-07T22:20:43.234Z,7.69
2019-04-07T22:23:13.495Z,7.70
2019-04-07T22:25:49.064Z,7.69
2019-04-07T22:28:18.583Z,7.61
2019-04-07T22:30:48.842Z,7.56
2019-04-07T22:33:22.887Z,7.46
2019-04-07T22:35:51.303Z,7.21
2019-04-07T22:38:23.350Z,7.12
2019-04-07T22:40:52.346Z,7.13
2019-04-07T22:43:21.865Z,7.30
2019-04-07T22:45:58.857Z,7.35
2019-04-07T22:48:25.656Z,7.27
2019-04-07T22:50:53.952Z,7.08
2019-04-07T22:53:27.306Z,6.68
2019-04-07T22:55:55.212Z,6.61
2019-04-07T22:58:24.515Z,6.42
2019-04-07T23:00:54.280Z,6.52
2019-04-07T23:03:23.997Z,6.56
2019-04-07T23:05:55.385Z,6.47
2019-04-07T23:08:25.280Z,6.30
2019-04-07T23:10:55.959Z,6.34
2019-04-07T23:13:25.848Z,6.25
2019-04-07T23:16:08.185Z,6.11
2019-04-07T23:18:27.588Z,6.19
2019-04-07T23:20:57.103Z,6.05
2019-04-07T23:23:26.625Z,6.24
2019-04-07T23:25:56.225Z,6.22
2019-04-07T23:28:25.705Z,6.28
2019-04-07T23:30:55.037Z,6.28
2019-04-07T23:33:25.518Z,6.21
2019-04-07T23:35:55.454Z,5.98
2019-04-07T23:38:26.072Z,5.92
2019-04-07T23:40:56.033Z,5.88
2019-04-07T23:43:25.506Z,5.76
2019-04-07T23:45:55.948Z,5.62
2019-04-07T23:48:26.333Z,5.64
2019-04-07T23:50:56.170Z,5.49
2019-04-07T23:54:02.283Z,5.44
2019-04-07T23:56:31.625Z,5.60
2019-04-07T23:59:02.578Z,5.80
